Time;durP1;ratioP1;P1;durP2;ratioP2;P2;SDS_P1;SDS_P2;PMS_P1;PMS_P2;Temp;Humidity;BMP_temperature;BMP_pressure;BME280_temperature;BME280_humidity;BME280_pressure;Samples;Min_cycle;Max_cycle;Signal;HPM_P1;HPM_P2
2022/04/13 00:00:32;;;;;;;6.68;4.35;;;;;;;;;;5011449;28;20058;-67
2022/04/13 00:03:03;;;;;;;6.72;3.58;;;;;;;;;;5011281;28;20053;-67
2022/04/13 00:05:34;;;;;;;5.20;3.58;;;;;;;;;;5027553;28;20046;-67
2022/04/13 00:08:08;;;;;;;8.77;3.65;;;;;;;;;;5015227;28;20051;-67
2022/04/13 00:10:39;;;;;;;20.73;16.15;;;;;;;;;;4943662;28;20073;-67
2022/04/13 00:13:10;;;;;;;7.82;4.80;;;;;;;;;;4991678;28;20057;-67
2022/04/13 00:15:42;;;;;;;9.18;5.30;;;;;;;;;;4991602;28;20081;-67
2022/04/13 00:18:13;;;;;;;9.02;5.75;;;;;;;;;;4952195;28;20103;-67
2022/04/13 00:20:45;;;;;;;13.50;7.75;;;;;;;;;;4952623;28;20491;-67
2022/04/13 00:23:15;;;;;;;9.38;5.28;;;;;;;;;;4952310;28;20054;-67
2022/04/13 00:25:47;;;;;;;6.20;3.53;;;;;;;;;;4952298;28;20051;-67
2022/04/13 00:28:18;;;;;;;8.02;4.25;;;;;;;;;;4952393;28;20055;-67
2022/04/13 00:30:49;;;;;;;6.55;3.95;;;;;;;;;;4919614;28;20059;-67
2022/04/13 00:33:20;;;;;;;5.65;3.35;;;;;;;;;;4952323;28;20064;-67
2022/04/13 00:35:50;;;;;;;5.75;3.28;;;;;;;;;;4952198;28;20058;-67
2022/04/13 00:38:22;;;;;;;5.85;3.53;;;;;;;;;;4952275;28;20054;-68
2022/04/13 00:40:52;;;;;;;6.78;3.80;;;;;;;;;;4952459;28;20056;-67
2022/04/13 00:43:24;;;;;;;6.28;3.75;;;;;;;;;;4952385;28;20070;-69
2022/04/13 00:45:55;;;;;;;8.25;3.78;;;;;;;;;;4963630;28;20059;-67
2022/04/13 00:48:35;;;;;;;6.93;3.90;;;;;;;;;;4971596;28;20081;-67
2022/04/13 00:51:05;;;;;;;6.82;3.53;;;;;;;;;;4971559;28;20418;-67
2022/04/13 00:53:37;;;;;;;6.95;4.20;;;;;;;;;;4983570;28;20415;-67
2022/04/13 00:56:10;;;;;;;7.00;3.85;;;;;;;;;;4966818;28;20050;-67
2022/04/13 00:58:46;;;;;;;9.35;4.72;;;;;;;;;;4990726;28;20055;-67
2022/04/13 01:01:16;;;;;;;8.13;4.35;;;;;;;;;;4943140;28;20047;-69
2022/04/13 01:03:51;;;;;;;8.88;4.45;;;;;;;;;;5016223;28;20489;-67
2022/04/13 01:06:24;;;;;;;10.93;5.53;;;;;;;;;;5014039;28;20057;-67
2022/04/13 01:08:55;;;;;;;11.65;5.07;;;;;;;;;;4997132;28;20053;-66
2022/04/13 01:11:27;;;;;;;11.27;5.57;;;;;;;;;;5010230;28;20046;-67
2022/04/13 01:13:58;;;;;;;9.57;5.10;;;;;;;;;;5043744;28;20056;-66
2022/04/13 01:16:30;;;;;;;10.05;5.05;;;;;;;;;;5016690;28;20080;-67
2022/04/13 01:19:03;;;;;;;10.43;4.72;;;;;;;;;;5056845;28;20156;-67
2022/04/13 01:21:47;;;;;;;10.10;5.05;;;;;;;;;;5049583;28;20448;-67
2022/04/13 01:24:17;;;;;;;10.88;5.47;;;;;;;;;;5016475;28;20057;-67
2022/04/13 01:26:49;;;;;;;9.93;5.07;;;;;;;;;;5049496;28;20057;-67
2022/04/13 01:29:19;;;;;;;11.02;5.90;;;;;;;;;;5049599;28;20049;-67
2022/04/13 01:31:53;;;;;;;10.13;5.18;;;;;;;;;;5033121;28;20049;-66
2022/04/13 01:34:24;;;;;;;10.18;5.35;;;;;;;;;;5016436;28;20057;-67
2022/04/13 01:36:55;;;;;;;10.07;5.40;;;;;;;;;;5033362;28;20067;-66
2022/04/13 01:39:27;;;;;;;12.30;4.82;;;;;;;;;;5049353;28;20056;-66
2022/04/13 01:41:58;;;;;;;10.48;4.88;;;;;;;;;;5049001;28;20513;-66
2022/04/13 01:44:28;;;;;;;10.50;5.40;;;;;;;;;;5049425;28;20380;-67
2022/04/13 01:46:59;;;;;;;9.32;4.88;;;;;;;;;;5049528;28;20107;-65
2022/04/13 01:49:30;;;;;;;11.27;5.35;;;;;;;;;;5062722;28;20057;-67
2022/04/13 01:52:00;;;;;;;12.20;5.40;;;;;;;;;;5036221;28;20048;-66
2022/04/13 01:54:31;;;;;;;14.50;5.78;;;;;;;;;;5069219;28;20051;-66
2022/04/13 01:57:03;;;;;;;13.52;5.32;;;;;;;;;;5069185;28;20447;-66
2022/04/13 01:59:34;;;;;;;13.45;5.53;;;;;;;;;;5048815;28;20043;-66
2022/04/13 02:02:05;;;;;;;10.75;5.00;;;;;;;;;;5091635;28;20403;-67
2022/04/13 02:04:36;;;;;;;10.88;5.40;;;;;;;;;;5012516;28;20064;-66
2022/04/13 02:07:07;;;;;;;11.88;5.07;;;;;;;;;;5028879;28;20065;-66
2022/04/13 02:09:38;;;;;;;11.82;4.93;;;;;;;;;;4980308;28;20053;-66
2022/04/13 02:12:09;;;;;;;12.45;5.97;;;;;;;;;;5029044;28;20049;-67
2022/04/13 02:14:40;;;;;;;11.50;5.00;;;;;;;;;;5028898;28;20060;-66
2022/04/13 02:17:16;;;;;;;12.25;5.70;;;;;;;;;;4996230;28;20053;-66
2022/04/13 02:19:47;;;;;;;11.32;4.82;;;;;;;;;;4989219;28;20050;-66
2022/04/13 02:22:18;;;;;;;10.15;5.13;;;;;;;;;;4973088;28;20155;-66
2022/04/13 02:25:08;;;;;;;11.32;5.18;;;;;;;;;;4989641;28;20053;-67
2022/04/13 02:27:39;;;;;;;11.73;5.05;;;;;;;;;;4989646;28;20054;-67
2022/04/13 02:30:10;;;;;;;12.35;5.30;;;;;;;;;;4989606;28;20106;-66
2022/04/13 02:32:45;;;;;;;13.05;6.25;;;;;;;;;;4989324;28;20054;-66
2022/04/13 02:35:15;;;;;;;11.68;5.43;;;;;;;;;;4957465;28;20058;-66
2022/04/13 02:37:46;;;;;;;12.57;5.18;;;;;;;;;;4989510;28;20179;-67
2022/04/13 02:40:17;;;;;;;13.38;6.05;;;;;;;;;;4989845;28;20054;-66
2022/04/13 02:42:48;;;;;;;13.68;5.70;;;;;;;;;;5019458;28;20061;-67
2022/04/13 02:45:18;;;;;;;20.35;5.13;;;;;;;;;;5028809;28;20437;-66
2022/04/13 02:47:49;;;;;;;13.18;5.20;;;;;;;;;;5028465;28;20054;-66
2022/04/13 02:50:20;;;;;;;13.27;5.10;;;;;;;;;;4989116;28;20050;-66
2022/04/13 02:52:54;;;;;;;10.25;5.03;;;;;;;;;;4989191;28;20054;-66
2022/04/13 02:55:25;;;;;;;10.15;5.00;;;;;;;;;;4944997;28;20065;-67
2022/04/13 02:57:56;;;;;;;13.05;5.13;;;;;;;;;;4993157;28;20502;-66
2022/04/13 03:00:27;;;;;;;10.70;5.15;;;;;;;;;;4993056;28;20066;-67
2022/04/13 03:02:57;;;;;;;11.15;4.43;;;;;;;;;;4995127;28;20406;-66
2022/04/13 03:05:29;;;;;;;11.63;4.80;;;;;;;;;;5012702;28;20054;-67
2022/04/13 03:08:00;;;;;;;11.80;4.90;;;;;;;;;;5012591;28;20061;-67
2022/04/13 03:10:31;;;;;;;12.30;4.28;;;;;;;;;;5012446;28;20060;-67
2022/04/13 03:13:03;;;;;;;11.05;4.82;;;;;;;;;;5012226;28;20196;-67
2022/04/13 03:15:34;;;;;;;10.40;3.95;;;;;;;;;;5012302;28;20457;-66
2022/04/13 03:18:07;;;;;;;10.98;4.70;;;;;;;;;;4980383;28;21076;-67
2022/04/13 03:20:38;;;;;;;16.25;5.00;;;;;;;;;;5032084;28;20164;-67
2022/04/13 03:23:08;;;;;;;12.65;4.95;;;;;;;;;;5011984;28;20465;-67
2022/04/13 03:25:39;;;;;;;10.90;4.50;;;;;;;;;;5012157;28;20163;-66
2022/04/13 03:28:10;;;;;;;11.63;4.40;;;;;;;;;;5016821;28;20545;-67
2022/04/13 03:30:41;;;;;;;13.93;5.00;;;;;;;;;;5003851;28;20540;-66
2022/04/13 03:33:11;;;;;;;9.27;4.50;;;;;;;;;;4992208;28;20050;-67
2022/04/13 03:35:41;;;;;;;9.70;3.72;;;;;;;;;;4992718;28;20411;-67
2022/04/13 03:38:12;;;;;;;9.10;3.40;;;;;;;;;;4992292;28;20061;-67
2022/04/13 03:40:43;;;;;;;8.57;3.40;;;;;;;;;;4992390;28;20050;-67
2022/04/13 03:43:14;;;;;;;8.48;3.40;;;;;;;;;;4992320;28;20434;-66
2022/04/13 03:45:44;;;;;;;13.55;3.90;;;;;;;;;;4991994;28;20046;-66
2022/04/13 03:48:15;;;;;;;7.15;3.25;;;;;;;;;;4992152;28;20051;-66
2022/04/13 03:50:46;;;;;;;7.63;3.53;;;;;;;;;;4992086;28;20055;-66
2022/04/13 03:53:17;;;;;;;7.53;3.33;;;;;;;;;;4991853;28;20051;-66
2022/04/13 03:55:47;;;;;;;12.60;3.63;;;;;;;;;;4992432;28;20043;-66
2022/04/13 03:58:18;;;;;;;9.30;2.55;;;;;;;;;;4992079;28;20062;-67
2022/04/13 04:00:48;;;;;;;5.57;2.20;;;;;;;;;;4959770;28;20062;-66
2022/04/13 04:03:20;;;;;;;7.45;2.80;;;;;;;;;;4991768;28;20106;-66
2022/04/13 04:05:50;;;;;;;6.35;2.50;;;;;;;;;;4992161;28;20050;-66
2022/04/13 04:08:21;;;;;;;5.72;2.30;;;;;;;;;;4991668;28;20156;-66
2022/04/13 04:10:51;;;;;;;5.90;2.22;;;;;;;;;;5011548;28;20049;-66
2022/04/13 04:13:22;;;;;;;4.65;1.70;;;;;;;;;;5031022;28;20088;-66
2022/04/13 04:15:53;;;;;;;5.82;2.10;;;;;;;;;;5014817;28;20062;-66
2022/04/13 04:18:24;;;;;;;5.72;2.17;;;;;;;;;;5032621;28;20056;-66
2022/04/13 04:20:54;;;;;;;5.50;1.90;;;;;;;;;;5050955;28;20056;-66
2022/04/13 04:23:25;;;;;;;3.40;1.80;;;;;;;;;;5034492;28;20053;-66
2022/04/13 04:25:56;;;;;;;8.38;2.00;;;;;;;;;;5017466;28;20045;-66
2022/04/13 04:28:26;;;;;;;6.07;2.00;;;;;;;;;;5050528;28;20049;-67
2022/04/13 04:30:57;;;;;;;7.55;3.03;;;;;;;;;;5030550;28;20100;-66
2022/04/13 04:33:28;;;;;;;5.93;2.15;;;;;;;;;;5030604;28;20061;-66
2022/04/13 04:35:58;;;;;;;4.80;2.08;;;;;;;;;;5030765;28;20057;-66
2022/04/13 04:38:32;;;;;;;6.05;2.00;;;;;;;;;;5010453;28;20058;-66
2022/04/13 04:41:03;;;;;;;6.28;2.28;;;;;;;;;;5010791;28;20406;-66
2022/04/13 04:43:34;;;;;;;7.82;2.53;;;;;;;;;;4990862;28;20050;-66
2022/04/13 04:46:05;;;;;;;11.55;5.18;;;;;;;;;;4954644;28;20057;-66
2022/04/13 04:48:35;;;;;;;7.78;2.67;;;;;;;;;;4971680;28;20066;-66
2022/04/13 04:51:06;;;;;;;6.82;2.83;;;;;;;;;;4971423;28;20062;-66
2022/04/13 04:53:37;;;;;;;13.23;3.08;;;;;;;;;;4932612;29;20708;-66
2022/04/13 04:56:08;;;;;;;6.15;2.95;;;;;;;;;;4932984;29;20059;-66
2022/04/13 04:58:38;;;;;;;6.68;2.40;;;;;;;;;;4933052;29;20079;-67
2022/04/13 05:01:09;;;;;;;7.35;2.67;;;;;;;;;;4932867;29;20064;-67
2022/04/13 05:03:43;;;;;;;8.45;2.60;;;;;;;;;;4932995;29;20063;-67
2022/04/13 05:06:14;;;;;;;5.03;2.08;;;;;;;;;;4932869;29;20056;-67
2022/04/13 05:08:44;;;;;;;7.75;2.47;;;;;;;;;;4903339;29;20150;-67
2022/04/13 05:11:15;;;;;;;19.60;2.60;;;;;;;;;;4967837;28;20067;-67
2022/04/13 05:13:46;;;;;;;10.23;2.63;;;;;;;;;;4951713;28;20055;-68
2022/04/13 05:16:18;;;;;;;6.63;2.17;;;;;;;;;;4940833;28;20050;-66
2022/04/13 05:18:49;;;;;;;8.65;2.35;;;;;;;;;;4958329;28;20061;-66
2022/04/13 05:21:20;;;;;;;6.93;2.53;;;;;;;;;;5001364;28;20072;-66
2022/04/13 05:23:50;;;;;;;4.28;2.13;;;;;;;;;;5000692;28;20049;-67
2022/04/13 05:26:21;;;;;;;6.85;2.17;;;;;;;;;;5009974;28;20057;-66
2022/04/13 05:28:52;;;;;;;5.75;2.08;;;;;;;;;;5009903;28;20545;-67
2022/04/13 05:31:22;;;;;;;7.45;2.28;;;;;;;;;;5020858;28;20053;-66
2022/04/13 05:33:54;;;;;;;5.55;2.17;;;;;;;;;;5029518;28;20145;-66
2022/04/13 05:36:25;;;;;;;6.95;2.22;;;;;;;;;;5013180;28;20053;-66
2022/04/13 05:38:55;;;;;;;7.25;2.25;;;;;;;;;;4989674;28;20046;-66
2022/04/13 05:41:26;;;;;;;7.13;2.35;;;;;;;;;;4990232;28;20541;-66
2022/04/13 05:43:56;;;;;;;6.85;2.75;;;;;;;;;;5006032;28;20808;-66
2022/04/13 05:46:27;;;;;;;6.68;2.60;;;;;;;;;;4989939;28;20050;-67
2022/04/13 05:48:59;;;;;;;9.32;2.92;;;;;;;;;;4989961;28;20522;-67
2022/04/13 05:51:29;;;;;;;;;;;;;;;;;;4974290;28;20058;-67
2022/04/13 05:54:00;;;;;;;5.78;2.45;;;;;;;;;;4990262;28;20301;-66
2022/04/13 05:56:31;;;;;;;9.13;2.78;;;;;;;;;;4989990;28;20062;-66
2022/04/13 05:59:01;;;;;;;6.93;2.75;;;;;;;;;;4957591;28;20577;-67
2022/04/13 06:01:32;;;;;;;12.98;3.10;;;;;;;;;;5010531;28;20072;-67
2022/04/13 06:04:03;;;;;;;9.65;3.30;;;;;;;;;;5029207;28;20092;-67
2022/04/13 06:06:34;;;;;;;7.30;3.17;;;;;;;;;;5012355;28;20053;-67
2022/04/13 06:09:05;;;;;;;9.40;3.35;;;;;;;;;;5029190;28;20448;-67
2022/04/13 06:11:35;;;;;;;14.93;3.33;;;;;;;;;;4980204;28;20068;-67
2022/04/13 06:14:07;;;;;;;8.60;3.00;;;;;;;;;;5012415;28;20527;-67
2022/04/13 06:16:38;;;;;;;7.15;2.85;;;;;;;;;;5051069;28;20416;-66
2022/04/13 06:19:09;;;;;;;7.82;2.60;;;;;;;;;;5079413;28;20067;-67
2022/04/13 06:21:39;;;;;;;8.82;2.65;;;;;;;;;;5028803;28;20073;-66
2022/04/13 06:24:10;;;;;;;9.40;3.08;;;;;;;;;;5029073;28;20057;-67
2022/04/13 06:26:41;;;;;;;13.40;2.60;;;;;;;;;;5028937;28;20516;-66
2022/04/13 06:29:12;;;;;;;29.98;3.53;;;;;;;;;;5031141;28;20525;-66
2022/04/13 06:31:42;;;;;;;36.83;4.25;;;;;;;;;;5000257;28;20046;-66
2022/04/13 06:34:13;;;;;;;29.90;2.88;;;;;;;;;;5033019;28;20057;-67
2022/04/13 06:36:44;;;;;;;23.80;3.35;;;;;;;;;;5032920;28;20064;-66
2022/04/13 06:39:15;;;;;;;18.83;4.90;;;;;;;;;;5032560;28;20421;-67
2022/04/13 06:41:45;;;;;;;25.33;4.00;;;;;;;;;;5032950;28;20501;-68
2022/04/13 06:44:16;;;;;;;26.13;4.55;;;;;;;;;;5012801;28;20057;-67
2022/04/13 06:46:47;;;;;;;37.53;4.97;;;;;;;;;;5012841;28;20058;-66
2022/04/13 06:49:17;;;;;;;34.85;4.43;;;;;;;;;;5012864;28;20054;-66
2022/04/13 06:51:48;;;;;;;39.88;4.88;;;;;;;;;;5012725;28;20545;-66
2022/04/13 06:54:19;;;;;;;30.60;4.10;;;;;;;;;;4980667;28;20491;-67
2022/04/13 06:56:50;;;;;;;29.15;3.65;;;;;;;;;;4980013;28;20473;-66
2022/04/13 06:59:20;;;;;;;32.20;4.45;;;;;;;;;;4990147;28;20441;-68
2022/04/13 07:01:50;;;;;;;28.33;3.75;;;;;;;;;;5032368;28;20536;-66
2022/04/13 07:04:21;;;;;;;41.13;4.00;;;;;;;;;;5032094;28;20050;-66
2022/04/13 07:06:52;;;;;;;23.25;4.00;;;;;;;;;;5032290;28;20163;-67
2022/04/13 07:09:22;;;;;;;13.10;4.03;;;;;;;;;;4972964;28;20050;-66
2022/04/13 07:11:53;;;;;;;12.52;3.83;;;;;;;;;;4938038;29;20058;-66
2022/04/13 07:14:24;;;;;;;9.45;3.50;;;;;;;;;;4953838;29;20066;-66
2022/04/13 07:16:55;;;;;;;8.20;3.38;;;;;;;;;;4949938;29;20413;-66
2022/04/13 07:19:25;;;;;;;7.85;3.55;;;;;;;;;;4934777;29;20448;-67
2022/04/13 07:21:56;;;;;;;10.30;4.32;;;;;;;;;;4944444;29;20059;-66
2022/04/13 07:24:33;;;;;;;9.32;3.88;;;;;;;;;;4923248;29;20423;-66
2022/04/13 07:27:05;;;;;;;9.23;3.83;;;;;;;;;;4953701;29;20055;-67
2022/04/13 07:29:35;;;;;;;8.60;4.05;;;;;;;;;;4937816;29;20563;-66
2022/04/13 07:32:06;;;;;;;9.77;4.03;;;;;;;;;;4938094;29;20158;-66
2022/04/13 07:34:37;;;;;;;10.43;4.30;;;;;;;;;;4953662;29;20074;-66
2022/04/13 07:37:08;;;;;;;9.57;4.18;;;;;;;;;;4934116;29;20058;-67
2022/04/13 07:39:39;;;;;;;12.00;4.35;;;;;;;;;;4918005;29;20054;-67
2022/04/13 07:42:09;;;;;;;11.85;4.15;;;;;;;;;;4936517;29;20058;-66
2022/04/13 07:44:40;;;;;;;9.43;3.70;;;;;;;;;;4953702;29;20079;-67
2022/04/13 07:47:27;;;;;;;11.15;4.25;;;;;;;;;;4960516;28;20047;-66
2022/04/13 07:49:59;;;;;;;10.93;3.90;;;;;;;;;;4966201;28;20054;-66
2022/04/13 07:52:36;;;;;;;10.98;4.00;;;;;;;;;;4956976;28;20546;-66
2022/04/13 07:55:09;;;;;;;14.13;4.15;;;;;;;;;;4972549;28;20058;-66
2022/04/13 07:57:41;;;;;;;9.70;3.80;;;;;;;;;;4957233;28;20478;-66
2022/04/13 08:00:13;;;;;;;10.55;3.75;;;;;;;;;;4972493;28;20058;-65
2022/04/13 08:02:44;;;;;;;10.38;4.30;;;;;;;;;;4956829;28;20058;-66
2022/04/13 08:05:15;;;;;;;15.85;3.70;;;;;;;;;;4972487;28;20059;-66
2022/04/13 08:07:46;;;;;;;10.50;4.80;;;;;;;;;;4972190;28;20435;-66
2022/04/13 08:10:17;;;;;;;9.85;4.00;;;;;;;;;;4988409;28;20415;-66
2022/04/13 08:12:48;;;;;;;10.95;4.22;;;;;;;;;;4972236;28;20411;-66
2022/04/13 08:15:18;;;;;;;11.73;4.28;;;;;;;;;;4958045;28;20063;-67
2022/04/13 08:17:49;;;;;;;13.60;3.72;;;;;;;;;;4952867;29;20058;-66
2022/04/13 08:20:20;;;;;;;9.70;4.07;;;;;;;;;;4983817;28;20075;-66
2022/04/13 08:22:51;;;;;;;9.70;3.60;;;;;;;;;;4991519;28;20043;-67
2022/04/13 08:25:21;;;;;;;12.82;4.82;;;;;;;;;;4991594;28;20062;-67
2022/04/13 08:27:52;;;;;;;16.25;4.60;;;;;;;;;;5015183;28;20164;-66
2022/04/13 08:30:25;;;;;;;12.65;3.95;;;;;;;;;;5014799;28;20045;-66
2022/04/13 08:32:55;;;;;;;13.55;4.72;;;;;;;;;;5010746;28;20057;-66
2022/04/13 08:35:27;;;;;;;18.58;4.65;;;;;;;;;;5010912;28;20045;-66
2022/04/13 08:37:58;;;;;;;17.98;5.43;;;;;;;;;;5010732;28;20525;-66
2022/04/13 08:40:37;;;;;;;20.20;4.60;;;;;;;;;;4994877;28;20061;-67
2022/04/13 08:43:11;;;;;;;17.85;4.43;;;;;;;;;;5010755;28;20041;-66
2022/04/13 08:45:55;;;;;;;20.08;5.05;;;;;;;;;;5010721;28;20066;-66
2022/04/13 08:48:27;;;;;;;16.27;4.30;;;;;;;;;;5010571;28;20045;-66
2022/04/13 08:51:03;;;;;;;;;;;;;;;;;;5010341;28;20054;-66
2022/04/13 08:53:40;;;;;;;11.02;3.78;;;;;;;;;;4992953;28;19928;-66
2022/04/13 08:56:15;;;;;;;9.77;3.60;;;;;;;;;;5030194;28;20050;-67
2022/04/13 08:59:24;;;;;;;10.80;4.30;;;;;;;;;;5030319;28;20053;-66
2022/04/13 09:02:08;;;;;;;13.18;4.93;;;;;;;;;;4952105;28;20059;-66
2022/04/13 09:04:45;;;;;;;16.42;5.13;;;;;;;;;;4951971;28;20055;-66
2022/04/13 09:07:18;;;;;;;15.02;5.05;;;;;;;;;;4952084;28;20059;-66
2022/04/13 09:09:51;;;;;;;19.10;5.13;;;;;;;;;;4923577;28;20053;-66
2022/04/13 09:12:23;;;;;;;20.55;5.38;;;;;;;;;;4932724;29;20103;-66
2022/04/13 09:14:55;;;;;;;22.35;5.32;;;;;;;;;;4932442;29;20395;-66
2022/04/13 09:17:31;;;;;;;19.50;5.40;;;;;;;;;;4932641;29;20060;-66
2022/04/13 09:20:02;;;;;;;19.70;5.45;;;;;;;;;;4947170;28;20078;-66
2022/04/13 09:22:35;;;;;;;14.88;4.55;;;;;;;;;;4951700;28;20059;-66
2022/04/13 09:25:07;;;;;;;13.38;3.97;;;;;;;;;;4951649;28;20144;-66
2022/04/13 09:27:39;;;;;;;15.68;4.40;;;;;;;;;;4951697;28;20439;-66
2022/04/13 09:30:10;;;;;;;15.18;4.18;;;;;;;;;;4951474;28;20059;-66
2022/04/13 09:32:43;;;;;;;11.30;3.90;;;;;;;;;;4952031;28;20051;-66
2022/04/13 09:35:13;;;;;;;13.00;4.18;;;;;;;;;;4935038;29;20099;-66
2022/04/13 09:37:44;;;;;;;11.27;3.92;;;;;;;;;;4968915;28;20501;-67
2022/04/13 09:40:34;;;;;;;11.20;4.13;;;;;;;;;;4990121;28;20054;-67
2022/04/13 09:43:06;;;;;;;12.60;3.80;;;;;;;;;;4990035;28;20635;-67
2022/04/13 09:45:43;;;;;;;13.00;4.07;;;;;;;;;;4974292;28;20051;-66
2022/04/13 09:48:16;;;;;;;10.80;3.75;;;;;;;;;;5022442;28;20086;-67
2022/04/13 09:50:49;;;;;;;13.32;3.70;;;;;;;;;;5012848;28;20412;-67
2022/04/13 09:53:21;;;;;;;9.75;3.35;;;;;;;;;;5071655;28;20041;-67
2022/04/13 09:55:53;;;;;;;8.38;2.97;;;;;;;;;;5071420;28;20036;-67
2022/04/13 09:58:25;;;;;;;7.53;3.00;;;;;;;;;;5019876;28;20059;-69
2022/04/13 10:01:06;;;;;;;7.63;3.00;;;;;;;;;;5049157;28;20456;-66
2022/04/13 10:03:38;;;;;;;7.53;3.03;;;;;;;;;;5048965;28;20053;-67
2022/04/13 10:06:08;;;;;;;8.13;3.10;;;;;;;;;;5016319;28;20052;-66
2022/04/13 10:08:39;;;;;;;9.93;3.00;;;;;;;;;;5049046;28;20400;-66
2022/04/13 10:11:10;;;;;;;10.13;3.10;;;;;;;;;;5012507;28;20052;-66
2022/04/13 10:13:41;;;;;;;8.27;3.22;;;;;;;;;;4996163;28;20061;-66
2022/04/13 10:16:16;;;;;;;12.50;3.80;;;;;;;;;;5028979;28;20410;-66
2022/04/13 10:18:58;;;;;;;7.63;3.28;;;;;;;;;;5013546;28;20525;-66
2022/04/13 10:21:43;;;;;;;10.35;3.65;;;;;;;;;;5028702;28;20052;-67
2022/04/13 10:24:21;;;;;;;;;;;;;;;;;;4980367;28;20073;-66
2022/04/13 10:27:12;;;;;;;8.77;3.90;;;;;;;;;;5028960;28;19988;-66
2022/04/13 10:29:44;;;;;;;10.10;3.67;;;;;;;;;;5028652;28;20053;-66
2022/04/13 10:32:26;;;;;;;11.52;4.05;;;;;;;;;;4997262;28;20049;-66
2022/04/13 10:34:57;;;;;;;12.68;4.07;;;;;;;;;;5028995;28;20193;-66
2022/04/13 10:37:27;;;;;;;10.57;3.97;;;;;;;;;;5028781;28;20490;-68
2022/04/13 10:40:00;;;;;;;12.40;4.28;;;;;;;;;;5029016;28;20054;-66
2022/04/13 10:42:36;;;;;;;9.25;3.25;;;;;;;;;;5012765;28;20052;-66
2022/04/13 10:45:08;;;;;;;9.20;3.40;;;;;;;;;;4995785;28;20042;-66
2022/04/13 10:47:49;;;;;;;9.32;3.80;;;;;;;;;;4997632;28;20053;-66
2022/04/13 10:50:31;;;;;;;9.98;3.63;;;;;;;;;;4996421;28;20053;-67
2022/04/13 10:53:09;;;;;;;7.60;3.40;;;;;;;;;;5028761;28;20072;-66
2022/04/13 10:55:42;;;;;;;6.18;3.17;;;;;;;;;;5012121;28;20496;-66
2022/04/13 10:58:16;;;;;;;6.40;3.03;;;;;;;;;;4988693;28;20046;-65
2022/04/13 11:00:50;;;;;;;6.00;3.17;;;;;;;;;;4989259;28;20526;-66
2022/04/13 11:03:25;;;;;;;5.90;2.67;;;;;;;;;;4989083;28;20114;-66
2022/04/13 11:05:55;;;;;;;6.07;2.60;;;;;;;;;;4988803;28;20426;-66
2022/04/13 11:08:52;;;;;;;6.57;2.95;;;;;;;;;;4984079;28;20051;-66
2022/04/13 11:11:25;;;;;;;6.03;2.80;;;;;;;;;;4969628;28;20058;-66
2022/04/13 11:13:56;;;;;;;5.88;2.80;;;;;;;;;;4970098;28;20062;-66
2022/04/13 11:16:31;;;;;;;5.90;2.40;;;;;;;;;;4972817;28;20058;-66
2022/04/13 11:19:03;;;;;;;7.75;2.72;;;;;;;;;;4972936;28;20407;-65
2022/04/13 11:21:34;;;;;;;5.85;2.78;;;;;;;;;;4988919;28;20589;-66
2022/04/13 11:24:05;;;;;;;4.80;2.53;;;;;;;;;;4973382;28;20422;-65
2022/04/13 11:26:35;;;;;;;12.85;6.18;;;;;;;;;;4988791;28;20070;-66
2022/04/13 11:29:21;;;;;;;5.72;2.67;;;;;;;;;;4973069;28;20420;-65
2022/04/13 11:32:00;;;;;;;21.92;13.85;;;;;;;;;;4973104;28;20047;-67
2022/04/13 11:34:49;;;;;;;6.25;3.70;;;;;;;;;;5008342;28;20089;-65
2022/04/13 11:37:25;;;;;;;4.47;2.30;;;;;;;;;;5011778;28;20061;-65
2022/04/13 11:40:05;;;;;;;9.57;4.70;;;;;;;;;;5013944;28;20054;-66
2022/04/13 11:42:37;;;;;;;4.43;2.42;;;;;;;;;;5000390;28;20049;-65
2022/04/13 11:45:15;;;;;;;5.65;2.72;;;;;;;;;;5007689;28;20050;-65
2022/04/13 11:47:56;;;;;;;5.70;3.15;;;;;;;;;;4991939;28;20046;-65
2022/04/13 11:50:36;;;;;;;5.95;2.83;;;;;;;;;;4975870;28;20473;-65
2022/04/13 11:53:10;;;;;;;7.13;3.15;;;;;;;;;;4976536;28;20058;-65
2022/04/13 11:55:40;;;;;;;5.60;2.55;;;;;;;;;;4991987;28;20066;-66
2022/04/13 11:58:12;;;;;;;4.60;2.35;;;;;;;;;;4991972;28;20058;-65
2022/04/13 12:00:58;;;;;;;8.77;5.43;;;;;;;;;;4988182;28;20057;-65
2022/04/13 12:03:37;;;;;;;4.57;2.53;;;;;;;;;;4991543;28;20054;-65
2022/04/13 12:06:21;;;;;;;5.60;2.45;;;;;;;;;;4991874;28;20054;-64
2022/04/13 12:09:00;;;;;;;5.55;2.97;;;;;;;;;;4991957;28;20051;-65
2022/04/13 12:11:46;;;;;;;5.63;2.58;;;;;;;;;;5005195;28;20625;-65
2022/04/13 12:14:28;;;;;;;6.35;2.80;;;;;;;;;;5011237;28;20049;-65
2022/04/13 12:16:59;;;;;;;4.63;2.30;;;;;;;;;;4932018;28;20050;-66
2022/04/13 12:19:41;;;;;;;4.88;2.30;;;;;;;;;;4995281;28;20050;-65
2022/04/13 12:22:16;;;;;;;5.03;2.63;;;;;;;;;;5011022;28;20054;-65
2022/04/13 12:25:09;;;;;;;10.60;4.40;;;;;;;;;;5015761;28;20524;-65
2022/04/13 12:27:40;;;;;;;7.72;3.75;;;;;;;;;;5030932;28;20064;-66
2022/04/13 12:30:18;;;;;;;4.97;2.78;;;;;;;;;;5030880;28;20057;-65
2022/04/13 12:32:49;;;;;;;4.82;2.40;;;;;;;;;;5014351;28;20068;-66
2022/04/13 12:35:20;;;;;;;4.75;2.33;;;;;;;;;;5030755;28;20060;-66
2022/04/13 12:37:56;;;;;;;3.60;1.90;;;;;;;;;;5021651;28;20045;-65
2022/04/13 12:40:28;;;;;;;3.70;2.00;;;;;;;;;;5016873;28;20053;-65
2022/04/13 12:42:59;;;;;;;5.30;3.33;;;;;;;;;;5017327;28;20071;-65
2022/04/13 12:45:31;;;;;;;4.38;2.50;;;;;;;;;;5017217;28;20084;-66
2022/04/13 12:48:09;;;;;;;3.88;2.17;;;;;;;;;;5050327;28;20053;-65
2022/04/13 12:50:58;;;;;;;3.28;1.90;;;;;;;;;;5050387;28;20452;-65
2022/04/13 12:53:29;;;;;;;4.38;1.83;;;;;;;;;;5017032;28;20056;-67
2022/04/13 12:56:00;;;;;;;4.68;1.60;;;;;;;;;;5050281;28;20102;-65
2022/04/13 12:58:40;;;;;;;4.47;2.63;;;;;;;;;;5033838;28;20538;-69
2022/04/13 13:01:47;;;;;;;4.97;2.90;;;;;;;;;;5050464;28;20049;-65
2022/04/13 13:04:20;;;;;;;4.32;2.38;;;;;;;;;;4904718;29;20062;-66
2022/04/13 13:06:54;;;;;;;;;;;;;;;;;;4952521;29;20054;-65
2022/04/13 13:09:27;;;;;;;6.05;3.08;;;;;;;;;;4932619;29;20346;-65
2022/04/13 13:12:09;;;;;;;8.15;3.45;;;;;;;;;;4932764;29;20055;-66
2022/04/13 13:14:43;;;;;;;5.20;2.42;;;;;;;;;;4936026;29;20067;-65
2022/04/13 13:17:31;;;;;;;4.97;2.83;;;;;;;;;;4951739;29;20054;-65
2022/04/13 13:20:11;;;;;;;6.22;3.40;;;;;;;;;;4932256;29;20048;-65
2022/04/13 13:22:48;;;;;;;5.13;2.70;;;;;;;;;;4948343;29;20505;-68
2022/04/13 13:25:19;;;;;;;6.15;2.90;;;;;;;;;;4913567;29;20437;-67
2022/04/13 13:27:55;;;;;;;5.82;3.13;;;;;;;;;;4913172;29;20052;-67
2022/04/13 13:30:29;;;;;;;5.57;2.70;;;;;;;;;;4913451;29;20440;-66
2022/04/13 13:33:00;;;;;;;5.95;3.30;;;;;;;;;;4913577;29;20512;-67
2022/04/13 13:35:32;;;;;;;6.30;3.58;;;;;;;;;;4866763;29;20059;-66
2022/04/13 13:38:09;;;;;;;10.25;5.32;;;;;;;;;;4912476;29;20052;-67
2022/04/13 13:40:42;;;;;;;8.77;4.07;;;;;;;;;;4918249;29;20063;-66
2022/04/13 13:43:15;;;;;;;6.53;3.63;;;;;;;;;;4932532;29;20203;-65
2022/04/13 13:45:51;;;;;;;6.43;3.63;;;;;;;;;;4932048;29;20071;-65
2022/04/13 13:48:25;;;;;;;6.75;4.13;;;;;;;;;;4951506;29;20059;-66
2022/04/13 13:51:01;;;;;;;6.63;3.28;;;;;;;;;;4951151;29;20071;-66
2022/04/13 13:53:31;;;;;;;8.73;4.00;;;;;;;;;;4950963;29;20732;-66
2022/04/13 13:56:01;;;;;;;5.57;3.28;;;;;;;;;;4950343;29;20062;-65
2022/04/13 13:58:33;;;;;;;6.68;3.63;;;;;;;;;;4951248;29;20055;-65
2022/04/13 14:01:04;;;;;;;6.32;3.20;;;;;;;;;;4931629;29;20431;-65
2022/04/13 14:03:35;;;;;;;6.55;3.35;;;;;;;;;;4946760;28;20059;-65
2022/04/13 14:06:06;;;;;;;7.78;3.15;;;;;;;;;;4978252;28;20558;-65
2022/04/13 14:08:37;;;;;;;6.55;3.15;;;;;;;;;;5007819;28;20070;-65
2022/04/13 14:11:08;;;;;;;4.95;2.85;;;;;;;;;;5009207;28;20398;-65
2022/04/13 14:13:39;;;;;;;7.50;3.70;;;;;;;;;;5009144;28;20150;-66
2022/04/13 14:16:09;;;;;;;6.22;2.80;;;;;;;;;;4969712;28;20046;-67
2022/04/13 14:18:40;;;;;;;4.07;2.50;;;;;;;;;;4969973;28;20069;-66
2022/04/13 14:21:12;;;;;;;5.88;2.50;;;;;;;;;;4912614;29;20068;-66
2022/04/13 14:23:42;;;;;;;5.57;2.70;;;;;;;;;;4913006;29;20064;-65
2022/04/13 14:26:13;;;;;;;5.03;2.72;;;;;;;;;;4912625;29;20063;-66
2022/04/13 14:28:46;;;;;;;4.22;2.00;;;;;;;;;;4893707;29;20060;-66
2022/04/13 14:31:16;;;;;;;5.13;2.55;;;;;;;;;;4867616;29;20053;-67
2022/04/13 14:33:47;;;;;;;4.10;2.60;;;;;;;;;;4874833;29;20540;-65
2022/04/13 14:36:17;;;;;;;4.03;2.33;;;;;;;;;;4874677;29;20075;-67
2022/04/13 14:38:48;;;;;;;4.10;2.28;;;;;;;;;;4874747;29;20049;-66
2022/04/13 14:41:19;;;;;;;3.45;1.88;;;;;;;;;;4874747;29;20064;-65
2022/04/13 14:43:49;;;;;;;4.18;2.50;;;;;;;;;;4875061;29;20422;-65
2022/04/13 14:46:20;;;;;;;4.50;2.47;;;;;;;;;;4929516;29;20063;-65
2022/04/13 14:48:51;;;;;;;6.10;2.63;;;;;;;;;;4902941;29;20044;-65
2022/04/13 14:51:21;;;;;;;5.03;2.30;;;;;;;;;;4897303;29;20060;-68
2022/04/13 14:53:54;;;;;;;5.20;2.55;;;;;;;;;;4907129;29;20537;-65
2022/04/13 14:56:24;;;;;;;5.65;2.20;;;;;;;;;;4915977;29;20067;-66
2022/04/13 14:58:57;;;;;;;4.10;1.98;;;;;;;;;;4929002;29;20055;-66
2022/04/13 15:01:28;;;;;;;5.20;2.20;;;;;;;;;;4953894;29;20063;-66
2022/04/13 15:03:59;;;;;;;4.07;2.45;;;;;;;;;;4954460;29;20059;-65
2022/04/13 15:06:29;;;;;;;3.83;2.10;;;;;;;;;;4941014;28;20438;-65
2022/04/13 15:09:00;;;;;;;2.78;1.73;;;;;;;;;;4958820;28;20470;-65
2022/04/13 15:11:31;;;;;;;3.60;1.75;;;;;;;;;;4922820;28;20451;-65